sensor_id;sensor_type;location;lat;lon;timestamp;P1;durP1;ratioP1;P2;durP2;ratioP2
3527;SDS011;1778;47.966;7.854;2023-05-10T00:00:27;3.93;;;3.90;;
3527;SDS011;1778;47.966;7.854;2023-05-10T00:01:29;3.60;;;3.60;;
3527;SDS011;1778;47.966;7.854;2023-05-10T00:02:30;4.63;;;4.53;;
3527;SDS011;1778;47.966;7.854;2023-05-10T00:03:32;3.90;;;3.80;;
3527;SDS011;1778;47.966;7.854;2023-05-10T00:04:34;4.07;;;4.03;;
3527;SDS011;1778;47.966;7.854;2023-05-10T00:05:35;4.30;;;4.20;;
3527;SDS011;1778;47.966;7.854;2023-05-10T00:06:37;3.87;;;3.77;;
3527;SDS011;1778;47.966;7.854;2023-05-10T00:07:38;4.70;;;4.60;;
3527;SDS011;1778;47.966;7.854;2023-05-10T00:08:40;4.40;;;4.30;;
3527;SDS011;1778;47.966;7.854;2023-05-10T00:09:42;4.40;;;4.30;;
3527;SDS011;1778;47.966;7.854;2023-05-10T00:10:44;4.90;;;4.80;;
3527;SDS011;1778;47.966;7.854;2023-05-10T00:11:45;4.47;;;4.37;;
3527;SDS011;1778;47.966;7.854;2023-05-10T00:12:47;4.07;;;3.97;;
3527;SDS011;1778;47.966;7.854;2023-05-10T00:13:48;4.03;;;3.93;;
3527;SDS011;1778;47.966;7.854;2023-05-10T00:14:50;4.47;;;4.37;;
3527;SDS011;1778;47.966;7.854;2023-05-10T00:15:51;3.83;;;3.83;;
3527;SDS011;1778;47.966;7.854;2023-05-10T00:16:53;4.40;;;4.30;;
3527;SDS011;1778;47.966;7.854;2023-05-10T00:17:55;4.33;;;4.23;;
3527;SDS011;1778;47.966;7.854;2023-05-10T00:19:00;3.93;;;3.83;;
3527;SDS011;1778;47.966;7.854;2023-05-10T00:20:02;4.20;;;4.10;;
3527;SDS011;1778;47.966;7.854;2023-05-10T00:21:06;4.30;;;4.20;;
3527;SDS011;1778;47.966;7.854;2023-05-10T00:22:08;4.00;;;3.90;;
3527;SDS011;1778;47.966;7.854;2023-05-10T00:23:09;4.40;;;4.30;;
3527;SDS011;1778;47.966;7.854;2023-05-10T00:24:11;4.43;;;4.33;;
3527;SDS011;1778;47.966;7.854;2023-05-10T00:25:12;4.30;;;4.20;;
3527;SDS011;1778;47.966;7.854;2023-05-10T00:26:14;4.17;;;4.13;;
3527;SDS011;1778;47.966;7.854;2023-05-10T00:27:20;4.40;;;4.30;;
3527;SDS011;1778;47.966;7.854;2023-05-10T00:28:21;4.27;;;4.17;;
3527;SDS011;1778;47.966;7.854;2023-05-10T00:29:23;4.17;;;3.87;;
3527;SDS011;1778;47.966;7.854;2023-05-10T00:30:25;3.90;;;3.90;;
3527;SDS011;1778;47.966;7.854;2023-05-10T00:31:26;3.83;;;3.83;;
3527;SDS011;1778;47.966;7.854;2023-05-10T00:32:28;4.57;;;4.47;;
3527;SDS011;1778;47.966;7.854;2023-05-10T00:33:29;4.00;;;4.00;;
3527;SDS011;1778;47.966;7.854;2023-05-10T00:34:31;4.67;;;4.57;;
3527;SDS011;1778;47.966;7.854;2023-05-10T00:35:33;4.63;;;4.53;;
3527;SDS011;1778;47.966;7.854;2023-05-10T00:36:35;4.60;;;4.50;;
3527;SDS011;1778;47.966;7.854;2023-05-10T00:37:36;4.20;;;4.10;;
3527;SDS011;1778;47.966;7.854;2023-05-10T00:38:37;3.80;;;3.80;;
3527;SDS011;1778;47.966;7.854;2023-05-10T00:39:39;4.70;;;4.40;;
3527;SDS011;1778;47.966;7.854;2023-05-10T00:40:40;3.90;;;3.90;;
3527;SDS011;1778;47.966;7.854;2023-05-10T00:41:49;4.37;;;4.23;;
3527;SDS011;1778;47.966;7.854;2023-05-10T00:42:51;4.40;;;4.30;;
3527;SDS011;1778;47.966;7.854;2023-05-10T00:43:54;4.13;;;4.03;;
3527;SDS011;1778;47.966;7.854;2023-05-10T00:44:56;4.30;;;4.20;;
3527;SDS011;1778;47.966;7.854;2023-05-10T00:45:59;4.30;;;4.20;;
3527;SDS011;1778;47.966;7.854;2023-05-10T00:47:00;4.30;;;4.20;;
3527;SDS011;1778;47.966;7.854;2023-05-10T00:48:02;4.33;;;4.23;;
3527;SDS011;1778;47.966;7.854;2023-05-10T00:49:05;4.00;;;3.93;;
3527;SDS011;1778;47.966;7.854;2023-05-10T00:50:07;4.20;;;4.00;;
3527;SDS011;1778;47.966;7.854;2023-05-10T00:51:09;4.70;;;4.60;;
3527;SDS011;1778;47.966;7.854;2023-05-10T00:52:11;4.77;;;4.67;;
3527;SDS011;1778;47.966;7.854;2023-05-10T00:53:14;4.70;;;4.60;;
3527;SDS011;1778;47.966;7.854;2023-05-10T00:54:17;4.03;;;4.00;;
3527;SDS011;1778;47.966;7.854;2023-05-10T00:55:19;4.57;;;4.47;;
3527;SDS011;1778;47.966;7.854;2023-05-10T00:56:20;4.07;;;4.00;;
3527;SDS011;1778;47.966;7.854;2023-05-10T00:57:24;4.10;;;4.00;;
3527;SDS011;1778;47.966;7.854;2023-05-10T00:58:26;4.50;;;4.40;;
3527;SDS011;1778;47.966;7.854;2023-05-10T00:59:29;4.43;;;4.33;;
3527;SDS011;1778;47.966;7.854;2023-05-10T01:00:32;4.67;;;4.57;;
3527;SDS011;1778;47.966;7.854;2023-05-10T01:01:35;4.40;;;4.30;;
3527;SDS011;1778;47.966;7.854;2023-05-10T01:02:37;4.17;;;4.07;;
3527;SDS011;1778;47.966;7.854;2023-05-10T01:03:39;4.63;;;4.33;;
3527;SDS011;1778;47.966;7.854;2023-05-10T01:04:41;4.40;;;4.30;;
3527;SDS011;1778;47.966;7.854;2023-05-10T01:05:43;4.33;;;4.23;;
3527;SDS011;1778;47.966;7.854;2023-05-10T01:06:45;4.17;;;4.07;;
3527;SDS011;1778;47.966;7.854;2023-05-10T01:07:46;4.60;;;4.50;;
3527;SDS011;1778;47.966;7.854;2023-05-10T01:08:49;4.30;;;4.20;;
3527;SDS011;1778;47.966;7.854;2023-05-10T01:09:51;3.90;;;3.90;;
3527;SDS011;1778;47.966;7.854;2023-05-10T01:10:52;4.37;;;4.27;;
3527;SDS011;1778;47.966;7.854;2023-05-10T01:11:55;4.40;;;4.30;;
3527;SDS011;1778;47.966;7.854;2023-05-10T01:12:57;4.67;;;4.57;;
3527;SDS011;1778;47.966;7.854;2023-05-10T01:14:01;4.43;;;4.33;;
3527;SDS011;1778;47.966;7.854;2023-05-10T01:15:05;4.27;;;4.17;;
3527;SDS011;1778;47.966;7.854;2023-05-10T01:16:08;4.47;;;4.37;;
3527;SDS011;1778;47.966;7.854;2023-05-10T01:17:10;4.43;;;4.33;;
3527;SDS011;1778;47.966;7.854;2023-05-10T01:18:13;4.50;;;4.40;;
3527;SDS011;1778;47.966;7.854;2023-05-10T01:20:22;4.27;;;4.17;;
3527;SDS011;1778;47.966;7.854;2023-05-10T01:21:48;3.97;;;3.97;;
3527;SDS011;1778;47.966;7.854;2023-05-10T01:23:23;4.17;;;4.07;;
3527;SDS011;1778;47.966;7.854;2023-05-10T01:28:26;4.00;;;3.97;;
3527;SDS011;1778;47.966;7.854;2023-05-10T01:32:36;3.93;;;3.83;;
3527;SDS011;1778;47.966;7.854;2023-05-10T01:34:02;4.40;;;4.30;;
3527;SDS011;1778;47.966;7.854;2023-05-10T01:35:22;4.20;;;4.10;;
3527;SDS011;1778;47.966;7.854;2023-05-10T01:37:02;4.30;;;4.20;;
3527;SDS011;1778;47.966;7.854;2023-05-10T01:40:42;4.33;;;4.23;;
3527;SDS011;1778;47.966;7.854;2023-05-10T01:42:10;4.60;;;4.50;;
3527;SDS011;1778;47.966;7.854;2023-05-10T01:43:22;3.97;;;3.93;;
3527;SDS011;1778;47.966;7.854;2023-05-10T01:45:47;4.50;;;4.40;;
3527;SDS011;1778;47.966;7.854;2023-05-10T01:47:01;4.73;;;4.63;;
3527;SDS011;1778;47.966;7.854;2023-05-10T01:48:09;4.27;;;4.17;;
3527;SDS011;1778;47.966;7.854;2023-05-10T01:49:16;4.83;;;4.73;;
3527;SDS011;1778;47.966;7.854;2023-05-10T01:50:29;4.77;;;4.67;;
3527;SDS011;1778;47.966;7.854;2023-05-10T01:51:33;4.30;;;4.20;;
3527;SDS011;1778;47.966;7.854;2023-05-10T01:52:41;4.50;;;4.40;;
3527;SDS011;1778;47.966;7.854;2023-05-10T01:53:46;4.63;;;4.53;;
3527;SDS011;1778;47.966;7.854;2023-05-10T01:54:52;4.53;;;4.43;;
3527;SDS011;1778;47.966;7.854;2023-05-10T01:55:57;4.87;;;4.67;;
3527;SDS011;1778;47.966;7.854;2023-05-10T01:57:02;4.50;;;4.40;;
3527;SDS011;1778;47.966;7.854;2023-05-10T01:58:08;4.47;;;4.37;;
3527;SDS011;1778;47.966;7.854;2023-05-10T01:59:15;4.57;;;4.47;;
3527;SDS011;1778;47.966;7.854;2023-05-10T02:00:19;4.57;;;4.47;;
3527;SDS011;1778;47.966;7.854;2023-05-10T02:01:25;4.67;;;4.57;;
3527;SDS011;1778;47.966;7.854;2023-05-10T02:02:28;4.67;;;4.57;;
3527;SDS011;1778;47.966;7.854;2023-05-10T02:03:34;4.63;;;4.53;;
3527;SDS011;1778;47.966;7.854;2023-05-10T02:04:38;4.50;;;4.40;;
3527;SDS011;1778;47.966;7.854;2023-05-10T02:05:41;4.70;;;4.60;;
3527;SDS011;1778;47.966;7.854;2023-05-10T02:06:45;4.83;;;4.73;;
3527;SDS011;1778;47.966;7.854;2023-05-10T02:07:48;4.97;;;4.87;;
3527;SDS011;1778;47.966;7.854;2023-05-10T02:08:51;4.80;;;4.70;;
3527;SDS011;1778;47.966;7.854;2023-05-10T02:09:54;4.87;;;4.77;;
3527;SDS011;1778;47.966;7.854;2023-05-10T02:10:57;4.63;;;4.53;;
3527;SDS011;1778;47.966;7.854;2023-05-10T02:12:01;5.07;;;4.97;;
3527;SDS011;1778;47.966;7.854;2023-05-10T02:13:06;4.93;;;4.83;;
3527;SDS011;1778;47.966;7.854;2023-05-10T02:14:09;5.17;;;5.07;;
3527;SDS011;1778;47.966;7.854;2023-05-10T02:15:18;5.30;;;5.20;;
3527;SDS011;1778;47.966;7.854;2023-05-10T02:16:23;4.83;;;4.73;;
3527;SDS011;1778;47.966;7.854;2023-05-10T02:17:27;5.30;;;5.20;;
3527;SDS011;1778;47.966;7.854;2023-05-10T02:18:31;5.17;;;5.07;;
3527;SDS011;1778;47.966;7.854;2023-05-10T02:19:38;4.80;;;4.70;;
3527;SDS011;1778;47.966;7.854;2023-05-10T02:20:43;6.80;;;6.13;;
3527;SDS011;1778;47.966;7.854;2023-05-10T02:21:49;5.17;;;5.07;;
3527;SDS011;1778;47.966;7.854;2023-05-10T02:22:52;5.53;;;5.33;;
3527;SDS011;1778;47.966;7.854;2023-05-10T02:23:56;5.67;;;5.47;;
3527;SDS011;1778;47.966;7.854;2023-05-10T02:24:59;4.77;;;4.67;;
3527;SDS011;1778;47.966;7.854;2023-05-10T02:26:02;5.07;;;4.93;;
3527;SDS011;1778;47.966;7.854;2023-05-10T02:27:07;5.33;;;5.23;;
3527;SDS011;1778;47.966;7.854;2023-05-10T02:28:10;4.90;;;4.80;;
3527;SDS011;1778;47.966;7.854;2023-05-10T02:29:14;5.20;;;5.10;;
3527;SDS011;1778;47.966;7.854;2023-05-10T02:30:17;5.30;;;5.03;;
3527;SDS011;1778;47.966;7.854;2023-05-10T02:31:20;4.83;;;4.73;;
3527;SDS011;1778;47.966;7.854;2023-05-10T02:32:22;5.40;;;5.30;;
3527;SDS011;1778;47.966;7.854;2023-05-10T02:33:27;5.20;;;5.10;;
3527;SDS011;1778;47.966;7.854;2023-05-10T02:34:30;5.60;;;5.50;;
3527;SDS011;1778;47.966;7.854;2023-05-10T02:35:33;5.37;;;5.27;;
3527;SDS011;1778;47.966;7.854;2023-05-10T02:36:37;5.17;;;5.07;;
3527;SDS011;1778;47.966;7.854;2023-05-10T02:37:40;5.50;;;5.40;;
3527;SDS011;1778;47.966;7.854;2023-05-10T02:38:43;5.70;;;5.50;;
3527;SDS011;1778;47.966;7.854;2023-05-10T02:39:49;4.87;;;4.77;;
3527;SDS011;1778;47.966;7.854;2023-05-10T02:40:53;5.10;;;5.00;;
3527;SDS011;1778;47.966;7.854;2023-05-10T02:41:56;5.03;;;4.93;;
3527;SDS011;1778;47.966;7.854;2023-05-10T02:42:58;5.43;;;5.33;;
3527;SDS011;1778;47.966;7.854;2023-05-10T02:44:02;5.20;;;5.10;;
3527;SDS011;1778;47.966;7.854;2023-05-10T02:45:09;5.13;;;5.03;;
3527;SDS011;1778;47.966;7.854;2023-05-10T02:46:13;5.17;;;5.07;;
3527;SDS011;1778;47.966;7.854;2023-05-10T02:47:15;5.13;;;5.03;;
3527;SDS011;1778;47.966;7.854;2023-05-10T02:48:17;5.30;;;5.20;;
3527;SDS011;1778;47.966;7.854;2023-05-10T02:49:18;5.20;;;5.10;;
3527;SDS011;1778;47.966;7.854;2023-05-10T02:50:21;5.70;;;5.40;;
3527;SDS011;1778;47.966;7.854;2023-05-10T02:51:27;5.30;;;5.20;;
3527;SDS011;1778;47.966;7.854;2023-05-10T02:52:39;5.63;;;5.43;;
3527;SDS011;1778;47.966;7.854;2023-05-10T02:53:45;5.30;;;5.20;;
3527;SDS011;1778;47.966;7.854;2023-05-10T02:54:48;5.00;;;4.90;;
3527;SDS011;1778;47.966;7.854;2023-05-10T02:55:52;5.20;;;5.10;;
3527;SDS011;1778;47.966;7.854;2023-05-10T02:56:58;5.33;;;5.23;;
3527;SDS011;1778;47.966;7.854;2023-05-10T02:58:04;5.87;;;5.70;;
3527;SDS011;1778;47.966;7.854;2023-05-10T02:59:06;5.20;;;5.10;;
3527;SDS011;1778;47.966;7.854;2023-05-10T03:00:08;5.33;;;5.23;;
3527;SDS011;1778;47.966;7.854;2023-05-10T03:01:11;5.23;;;5.13;;
3527;SDS011;1778;47.966;7.854;2023-05-10T03:02:12;5.40;;;5.30;;
3527;SDS011;1778;47.966;7.854;2023-05-10T03:03:15;5.30;;;5.20;;
3527;SDS011;1778;47.966;7.854;2023-05-10T03:04:16;5.50;;;5.40;;
3527;SDS011;1778;47.966;7.854;2023-05-10T03:05:18;5.53;;;5.43;;
3527;SDS011;1778;47.966;7.854;2023-05-10T03:06:20;5.80;;;5.70;;
3527;SDS011;1778;47.966;7.854;2023-05-10T03:07:22;5.77;;;5.67;;
3527;SDS011;1778;47.966;7.854;2023-05-10T03:08:24;5.80;;;5.70;;
3527;SDS011;1778;47.966;7.854;2023-05-10T03:09:26;5.70;;;5.60;;
3527;SDS011;1778;47.966;7.854;2023-05-10T03:10:28;5.73;;;5.63;;
3527;SDS011;1778;47.966;7.854;2023-05-10T03:11:35;5.70;;;5.60;;
3527;SDS011;1778;47.966;7.854;2023-05-10T03:12:52;6.57;;;6.10;;
3527;SDS011;1778;47.966;7.854;2023-05-10T03:14:26;5.47;;;5.37;;
3527;SDS011;1778;47.966;7.854;2023-05-10T03:15:42;5.50;;;5.40;;
3527;SDS011;1778;47.966;7.854;2023-05-10T03:17:00;5.43;;;5.33;;
3527;SDS011;1778;47.966;7.854;2023-05-10T03:19:40;5.43;;;5.33;;
3527;SDS011;1778;47.966;7.854;2023-05-10T03:20:51;5.27;;;5.17;;
3527;SDS011;1778;47.966;7.854;2023-05-10T03:21:59;4.77;;;4.67;;
3527;SDS011;1778;47.966;7.854;2023-05-10T03:24:27;4.77;;;4.67;;
3527;SDS011;1778;47.966;7.854;2023-05-10T03:25:31;5.40;;;5.30;;
3527;SDS011;1778;47.966;7.854;2023-05-10T03:26:36;5.60;;;5.50;;
3527;SDS011;1778;47.966;7.854;2023-05-10T03:27:47;5.60;;;5.50;;
3527;SDS011;1778;47.966;7.854;2023-05-10T03:28:49;5.67;;;5.57;;
3527;SDS011;1778;47.966;7.854;2023-05-10T03:29:52;5.27;;;5.10;;
3527;SDS011;1778;47.966;7.854;2023-05-10T03:30:54;4.90;;;4.80;;
3527;SDS011;1778;47.966;7.854;2023-05-10T03:31:58;5.20;;;5.10;;
3527;SDS011;1778;47.966;7.854;2023-05-10T03:33:05;5.00;;;4.90;;
3527;SDS011;1778;47.966;7.854;2023-05-10T03:34:13;4.90;;;4.80;;
3527;SDS011;1778;47.966;7.854;2023-05-10T03:35:15;5.50;;;5.40;;
3527;SDS011;1778;47.966;7.854;2023-05-10T03:36:17;5.30;;;5.10;;
3527;SDS011;1778;47.966;7.854;2023-05-10T03:37:20;5.00;;;4.90;;
3527;SDS011;1778;47.966;7.854;2023-05-10T03:38:22;5.30;;;5.20;;
3527;SDS011;1778;47.966;7.854;2023-05-10T03:39:24;5.20;;;5.10;;
3527;SDS011;1778;47.966;7.854;2023-05-10T03:40:30;5.03;;;4.93;;
3527;SDS011;1778;47.966;7.854;2023-05-10T03:41:33;5.43;;;5.23;;
3527;SDS011;1778;47.966;7.854;2023-05-10T03:42:34;5.10;;;5.00;;
3527;SDS011;1778;47.966;7.854;2023-05-10T03:43:36;5.07;;;4.97;;
3527;SDS011;1778;47.966;7.854;2023-05-10T03:44:38;5.20;;;5.10;;
3527;SDS011;1778;47.966;7.854;2023-05-10T03:45:40;5.70;;;5.60;;
3527;SDS011;1778;47.966;7.854;2023-05-10T03:46:42;5.70;;;5.60;;
3527;SDS011;1778;47.966;7.854;2023-05-10T03:47:43;5.57;;;5.47;;
3527;SDS011;1778;47.966;7.854;2023-05-10T03:48:45;5.43;;;5.33;;
3527;SDS011;1778;47.966;7.854;2023-05-10T03:49:46;5.40;;;5.30;;
3527;SDS011;1778;47.966;7.854;2023-05-10T03:50:48;5.43;;;5.33;;
3527;SDS011;1778;47.966;7.854;2023-05-10T03:51:50;5.57;;;5.47;;
3527;SDS011;1778;47.966;7.854;2023-05-10T03:52:51;5.23;;;5.13;;
3527;SDS011;1778;47.966;7.854;2023-05-10T03:53:55;5.20;;;5.10;;
3527;SDS011;1778;47.966;7.854;2023-05-10T03:54:57;5.60;;;5.50;;
3527;SDS011;1778;47.966;7.854;2023-05-10T03:55:58;5.40;;;5.20;;
3527;SDS011;1778;47.966;7.854;2023-05-10T03:57:00;5.10;;;5.00;;
3527;SDS011;1778;47.966;7.854;2023-05-10T03:58:02;5.40;;;5.30;;
3527;SDS011;1778;47.966;7.854;2023-05-10T03:59:04;5.47;;;5.37;;
3527;SDS011;1778;47.966;7.854;2023-05-10T04:00:09;5.37;;;5.27;;
3527;SDS011;1778;47.966;7.854;2023-05-10T04:01:14;5.50;;;5.40;;
3527;SDS011;1778;47.966;7.854;2023-05-10T04:02:16;4.97;;;4.87;;
3527;SDS011;1778;47.966;7.854;2023-05-10T04:03:18;5.23;;;5.13;;
3527;SDS011;1778;47.966;7.854;2023-05-10T04:04:21;4.90;;;4.80;;
3527;SDS011;1778;47.966;7.854;2023-05-10T04:05:24;5.07;;;4.97;;
3527;SDS011;1778;47.966;7.854;2023-05-10T04:06:26;5.00;;;4.90;;
3527;SDS011;1778;47.966;7.854;2023-05-10T04:07:28;4.70;;;4.60;;
3527;SDS011;1778;47.966;7.854;2023-05-10T04:08:30;5.07;;;4.97;;
3527;SDS011;1778;47.966;7.854;2023-05-10T04:09:32;5.60;;;5.50;;
3527;SDS011;1778;47.966;7.854;2023-05-10T04:10:33;5.00;;;4.90;;
3527;SDS011;1778;47.966;7.854;2023-05-10T04:11:35;5.67;;;5.57;;
3527;SDS011;1778;47.966;7.854;2023-05-10T04:12:36;5.23;;;5.13;;
3527;SDS011;1778;47.966;7.854;2023-05-10T04:13:38;5.77;;;5.67;;
3527;SDS011;1778;47.966;7.854;2023-05-10T04:14:39;5.33;;;5.13;;
3527;SDS011;1778;47.966;7.854;2023-05-10T04:15:41;5.80;;;5.63;;
3527;SDS011;1778;47.966;7.854;2023-05-10T04:16:43;5.57;;;5.47;;
3527;SDS011;1778;47.966;7.854;2023-05-10T04:17:45;4.97;;;4.87;;
3527;SDS011;1778;47.966;7.854;2023-05-10T04:18:47;4.70;;;4.60;;
3527;SDS011;1778;47.966;7.854;2023-05-10T04:19:49;4.97;;;4.87;;
3527;SDS011;1778;47.966;7.854;2023-05-10T04:20:53;5.30;;;5.20;;
3527;SDS011;1778;47.966;7.854;2023-05-10T04:21:55;5.20;;;5.10;;
3527;SDS011;1778;47.966;7.854;2023-05-10T04:22:56;5.10;;;5.00;;
3527;SDS011;1778;47.966;7.854;2023-05-10T04:23:58;5.43;;;5.30;;
3527;SDS011;1778;47.966;7.854;2023-05-10T04:25:00;5.03;;;4.93;;
3527;SDS011;1778;47.966;7.854;2023-05-10T04:26:02;5.30;;;5.20;;
3527;SDS011;1778;47.966;7.854;2023-05-10T04:27:04;5.03;;;4.93;;
3527;SDS011;1778;47.966;7.854;2023-05-10T04:28:06;4.80;;;4.70;;
3527;SDS011;1778;47.966;7.854;2023-05-10T04:29:08;5.07;;;4.90;;
3527;SDS011;1778;47.966;7.854;2023-05-10T04:30:09;4.93;;;4.83;;
3527;SDS011;1778;47.966;7.854;2023-05-10T04:31:12;5.70;;;5.53;;
3527;SDS011;1778;47.966;7.854;2023-05-10T04:32:14;5.77;;;5.57;;
3527;SDS011;1778;47.966;7.854;2023-05-10T04:33:17;4.77;;;4.67;;
3527;SDS011;1778;47.966;7.854;2023-05-10T04:34:20;4.87;;;4.77;;
3527;SDS011;1778;47.966;7.854;2023-05-10T04:35:22;4.60;;;4.50;;
3527;SDS011;1778;47.966;7.854;2023-05-10T04:36:23;4.77;;;4.67;;
3527;SDS011;1778;47.966;7.854;2023-05-10T04:37:25;4.87;;;4.77;;
3527;SDS011;1778;47.966;7.854;2023-05-10T04:38:26;4.83;;;4.73;;
3527;SDS011;1778;47.966;7.854;2023-05-10T04:39:28;5.17;;;5.00;;
3527;SDS011;1778;47.966;7.854;2023-05-10T04:40:30;4.90;;;4.80;;
3527;SDS011;1778;47.966;7.854;2023-05-10T04:41:32;5.20;;;5.10;;
3527;SDS011;1778;47.966;7.854;2023-05-10T04:42:33;5.07;;;4.70;;
3527;SDS011;1778;47.966;7.854;2023-05-10T04:43:35;4.73;;;4.63;;
3527;SDS011;1778;47.966;7.854;2023-05-10T04:44:37;4.87;;;4.77;;
3527;SDS011;1778;47.966;7.854;2023-05-10T04:45:39;4.53;;;4.43;;
3527;SDS011;1778;47.966;7.854;2023-05-10T04:46:40;4.63;;;4.53;;
3527;SDS011;1778;47.966;7.854;2023-05-10T04:47:42;4.77;;;4.67;;
3527;SDS011;1778;47.966;7.854;2023-05-10T04:48:43;4.90;;;4.80;;
3527;SDS011;1778;47.966;7.854;2023-05-10T04:49:45;4.60;;;4.50;;
3527;SDS011;1778;47.966;7.854;2023-05-10T04:50:46;4.90;;;4.80;;
3527;SDS011;1778;47.966;7.854;2023-05-10T04:51:48;4.33;;;4.23;;
3527;SDS011;1778;47.966;7.854;2023-05-10T04:52:50;3.93;;;3.87;;
3527;SDS011;1778;47.966;7.854;2023-05-10T04:53:53;4.13;;;4.03;;
3527;SDS011;1778;47.966;7.854;2023-05-10T04:55:05;4.50;;;4.40;;
3527;SDS011;1778;47.966;7.854;2023-05-10T04:56:10;4.20;;;4.10;;
3527;SDS011;1778;47.966;7.854;2023-05-10T04:57:11;4.27;;;4.17;;
3527;SDS011;1778;47.966;7.854;2023-05-10T04:58:13;4.43;;;4.33;;
3527;SDS011;1778;47.966;7.854;2023-05-10T04:59:15;4.20;;;4.10;;
3527;SDS011;1778;47.966;7.854;2023-05-10T05:00:17;4.57;;;4.47;;
3527;SDS011;1778;47.966;7.854;2023-05-10T05:01:19;4.43;;;4.33;;
3527;SDS011;1778;47.966;7.854;2023-05-10T05:02:20;3.60;;;3.60;;
3527;SDS011;1778;47.966;7.854;2023-05-10T05:03:22;4.00;;;3.90;;
3527;SDS011;1778;47.966;7.854;2023-05-10T05:04:24;3.70;;;3.60;;
3527;SDS011;1778;47.966;7.854;2023-05-10T05:05:26;3.57;;;3.57;;
3527;SDS011;1778;47.966;7.854;2023-05-10T05:06:27;3.83;;;3.83;;
3527;SDS011;1778;47.966;7.854;2023-05-10T05:07:29;4.13;;;4.03;;
3527;SDS011;1778;47.966;7.854;2023-05-10T05:08:32;4.13;;;4.03;;
3527;SDS011;1778;47.966;7.854;2023-05-10T05:09:33;3.77;;;3.67;;
3527;SDS011;1778;47.966;7.854;2023-05-10T05:10:35;4.07;;;3.97;;
3527;SDS011;1778;47.966;7.854;2023-05-10T05:11:37;3.77;;;3.77;;
3527;SDS011;1778;47.966;7.854;2023-05-10T05:12:39;4.20;;;4.10;;
3527;SDS011;1778;47.966;7.854;2023-05-10T05:13:40;4.13;;;4.07;;
3527;SDS011;1778;47.966;7.854;2023-05-10T05:14:42;3.93;;;3.83;;
3527;SDS011;1778;47.966;7.854;2023-05-10T05:15:43;4.03;;;3.83;;
3527;SDS011;1778;47.966;7.854;2023-05-10T05:16:45;4.07;;;3.97;;
3527;SDS011;1778;47.966;7.854;2023-05-10T05:17:46;3.97;;;3.87;;
3527;SDS011;1778;47.966;7.854;2023-05-10T05:18:48;3.60;;;3.60;;
3527;SDS011;1778;47.966;7.854;2023-05-10T05:19:50;4.10;;;3.90;;
3527;SDS011;1778;47.966;7.854;2023-05-10T05:20:52;3.67;;;3.60;;
3527;SDS011;1778;47.966;7.854;2023-05-10T05:21:53;3.67;;;3.67;;
3527;SDS011;1778;47.966;7.854;2023-05-10T05:22:54;3.70;;;3.60;;
3527;SDS011;1778;47.966;7.854;2023-05-10T05:23:56;3.60;;;3.60;;
3527;SDS011;1778;47.966;7.854;2023-05-10T05:24:57;3.67;;;3.57;;
3527;SDS011;1778;47.966;7.854;2023-05-10T05:25:59;3.40;;;3.40;;
3527;SDS011;1778;47.966;7.854;2023-05-10T05:27:01;3.40;;;3.30;;
3527;SDS011;1778;47.966;7.854;2023-05-10T05:28:02;3.50;;;3.40;;
3527;SDS011;1778;47.966;7.854;2023-05-10T05:29:04;2.90;;;2.90;;
3527;SDS011;1778;47.966;7.854;2023-05-10T05:30:06;3.03;;;2.97;;
3527;SDS011;1778;47.966;7.854;2023-05-10T05:31:08;3.63;;;3.53;;
3527;SDS011;1778;47.966;7.854;2023-05-10T05:32:10;3.03;;;3.03;;
3527;SDS011;1778;47.966;7.854;2023-05-10T05:33:15;3.27;;;3.27;;
3527;SDS011;1778;47.966;7.854;2023-05-10T05:34:16;3.20;;;3.20;;
3527;SDS011;1778;47.966;7.854;2023-05-10T05:35:18;2.80;;;2.80;;
3527;SDS011;1778;47.966;7.854;2023-05-10T05:36:19;3.33;;;3.30;;
3527;SDS011;1778;47.966;7.854;2023-05-10T05:37:21;3.00;;;3.00;;
3527;SDS011;1778;47.966;7.854;2023-05-10T05:38:23;3.07;;;2.97;;
3527;SDS011;1778;47.966;7.854;2023-05-10T05:39:25;6.00;;;2.97;;
3527;SDS011;1778;47.966;7.854;2023-05-10T05:40:26;2.70;;;2.70;;
3527;SDS011;1778;47.966;7.854;2023-05-10T05:41:27;4.67;;;3.33;;
3527;SDS011;1778;47.966;7.854;2023-05-10T05:42:30;3.47;;;3.37;;
3527;SDS011;1778;47.966;7.854;2023-05-10T05:43:32;2.67;;;2.67;;
3527;SDS011;1778;47.966;7.854;2023-05-10T05:44:37;2.70;;;2.70;;
3527;SDS011;1778;47.966;7.854;2023-05-10T05:45:39;2.77;;;2.77;;
3527;SDS011;1778;47.966;7.854;2023-05-10T05:46:41;2.67;;;2.67;;
3527;SDS011;1778;47.966;7.854;2023-05-10T05:47:42;2.83;;;2.73;;
3527;SDS011;1778;47.966;7.854;2023-05-10T05:48:44;3.27;;;3.17;;
3527;SDS011;1778;47.966;7.854;2023-05-10T05:49:45;3.10;;;3.00;;
3527;SDS011;1778;47.966;7.854;2023-05-10T05:50:47;3.07;;;2.97;;
3527;SDS011;1778;47.966;7.854;2023-05-10T05:51:48;3.17;;;3.17;;
3527;SDS011;1778;47.966;7.854;2023-05-10T05:52:51;10.03;;;3.90;;
3527;SDS011;1778;47.966;7.854;2023-05-10T05:53:52;3.30;;;3.30;;
3527;SDS011;1778;47.966;7.854;2023-05-10T05:54:54;2.97;;;2.97;;
3527;SDS011;1778;47.966;7.854;2023-05-10T05:55:56;2.80;;;2.80;;
3527;SDS011;1778;47.966;7.854;2023-05-10T05:56:59;3.00;;;3.00;;
3527;SDS011;1778;47.966;7.854;2023-05-10T05:58:01;3.10;;;3.10;;
3527;SDS011;1778;47.966;7.854;2023-05-10T05:59:03;3.63;;;3.43;;
3527;SDS011;1778;47.966;7.854;2023-05-10T06:00:05;2.87;;;2.87;;
3527;SDS011;1778;47.966;7.854;2023-05-10T06:01:12;3.50;;;3.50;;
3527;SDS011;1778;47.966;7.854;2023-05-10T06:02:14;3.00;;;3.00;;
3527;SDS011;1778;47.966;7.854;2023-05-10T06:03:15;3.00;;;3.00;;
3527;SDS011;1778;47.966;7.854;2023-05-10T06:04:17;3.20;;;3.20;;
3527;SDS011;1778;47.966;7.854;2023-05-10T06:05:19;2.80;;;2.80;;
3527;SDS011;1778;47.966;7.854;2023-05-10T06:06:21;3.73;;;3.53;;
3527;SDS011;1778;47.966;7.854;2023-05-10T06:07:22;3.00;;;3.00;;
3527;SDS011;1778;47.966;7.854;2023-05-10T06:08:24;3.00;;;2.90;;
3527;SDS011;1778;47.966;7.854;2023-05-10T06:09:25;2.90;;;2.90;;
3527;SDS011;1778;47.966;7.854;2023-05-10T06:10:27;3.07;;;3.07;;
3527;SDS011;1778;47.966;7.854;2023-05-10T06:11:29;2.83;;;2.83;;
3527;SDS011;1778;47.966;7.854;2023-05-10T06:12:32;3.00;;;3.00;;
3527;SDS011;1778;47.966;7.854;2023-05-10T06:13:34;3.10;;;3.10;;
3527;SDS011;1778;47.966;7.854;2023-05-10T06:14:36;3.57;;;3.47;;
3527;SDS011;1778;47.966;7.854;2023-05-10T06:15:38;2.80;;;2.80;;
3527;SDS011;1778;47.966;7.854;2023-05-10T06:16:41;3.20;;;3.10;;
3527;SDS011;1778;47.966;7.854;2023-05-10T06:17:43;3.20;;;3.20;;
3527;SDS011;1778;47.966;7.854;2023-05-10T06:18:45;3.00;;;3.00;;
3527;SDS011;1778;47.966;7.854;2023-05-10T06:19:49;3.17;;;3.17;;
3527;SDS011;1778;47.966;7.854;2023-05-10T06:20:51;3.00;;;3.00;;
3527;SDS011;1778;47.966;7.854;2023-05-10T06:21:55;3.07;;;3.07;;
3527;SDS011;1778;47.966;7.854;2023-05-10T06:22:57;3.10;;;3.10;;
3527;SDS011;1778;47.966;7.854;2023-05-10T06:23:59;3.07;;;3.07;;
3527;SDS011;1778;47.966;7.854;2023-05-10T06:25:00;3.33;;;3.03;;
3527;SDS011;1778;47.966;7.854;2023-05-10T06:26:02;2.90;;;2.90;;
3527;SDS011;1778;47.966;7.854;2023-05-10T06:27:04;10.40;;;2.77;;
3527;SDS011;1778;47.966;7.854;2023-05-10T06:28:06;2.40;;;2.40;;
3527;SDS011;1778;47.966;7.854;2023-05-10T06:29:08;2.60;;;2.60;;
3527;SDS011;1778;47.966;7.854;2023-05-10T06:30:09;2.77;;;2.77;;
3527;SDS011;1778;47.966;7.854;2023-05-10T06:31:13;3.00;;;3.00;;
3527;SDS011;1778;47.966;7.854;2023-05-10T06:32:15;3.00;;;3.00;;
3527;SDS011;1778;47.966;7.854;2023-05-10T06:33:16;3.33;;;3.23;;
3527;SDS011;1778;47.966;7.854;2023-05-10T06:34:18;2.90;;;2.90;;
3527;SDS011;1778;47.966;7.854;2023-05-10T06:35:20;2.83;;;2.83;;
3527;SDS011;1778;47.966;7.854;2023-05-10T06:36:21;2.37;;;2.37;;
3527;SDS011;1778;47.966;7.854;2023-05-10T06:37:25;2.70;;;2.70;;
3527;SDS011;1778;47.966;7.854;2023-05-10T06:38:27;3.00;;;2.90;;
3527;SDS011;1778;47.966;7.854;2023-05-10T06:39:28;2.60;;;2.60;;
3527;SDS011;1778;47.966;7.854;2023-05-10T06:40:30;2.80;;;2.60;;
3527;SDS011;1778;47.966;7.854;2023-05-10T06:41:32;3.13;;;3.13;;
3527;SDS011;1778;47.966;7.854;2023-05-10T06:42:33;2.70;;;2.70;;
3527;SDS011;1778;47.966;7.854;2023-05-10T06:43:36;2.60;;;2.60;;
3527;SDS011;1778;47.966;7.854;2023-05-10T06:44:40;2.77;;;2.77;;
3527;SDS011;1778;47.966;7.854;2023-05-10T06:45:42;2.77;;;2.67;;
3527;SDS011;1778;47.966;7.854;2023-05-10T06:46:44;2.47;;;2.47;;
3527;SDS011;1778;47.966;7.854;2023-05-10T06:47:45;2.77;;;2.77;;
3527;SDS011;1778;47.966;7.854;2023-05-10T06:48:47;2.30;;;2.30;;